Time;durP1;ratioP1;P1;durP2;ratioP2;P2;SDS_P1;SDS_P2;PMS_P1;PMS_P2;Temp;Humidity;BMP_temperature;BMP_pressure;BME280_temperature;BME280_humidity;BME280_pressure;Samples;Min_cycle;Max_cycle;Signal;HPM_P1;HPM_P2
2021/08/06 00:01:49;;;;;;;30.30;28.80;;;;;;;;;;4975792;28;20851;-74
2021/08/06 00:04:16;;;;;;;29.87;28.37;;;;;;;;;;4978144;28;20451;-72
2021/08/06 00:06:44;;;;;;;29.03;27.43;;;;;;;;;;4967719;28;20471;-73
2021/08/06 00:09:11;;;;;;;29.70;28.20;;;;;;;;;;4959670;28;20831;-72
2021/08/06 00:11:38;;;;;;;28.77;27.27;;;;;;;;;;4960615;28;20467;-72
2021/08/06 00:14:06;;;;;;;29.07;27.57;;;;;;;;;;4957795;28;20484;-72
2021/08/06 00:16:34;;;;;;;29.13;27.63;;;;;;;;;;4965250;28;20974;-72
2021/08/06 00:19:02;;;;;;;29.10;27.60;;;;;;;;;;4976078;28;20455;-71
2021/08/06 00:21:29;;;;;;;30.10;28.50;;;;;;;;;;4975614;28;20531;-71
2021/08/06 00:23:56;;;;;;;30.23;28.63;;;;;;;;;;4975042;28;20490;-72
2021/08/06 00:26:23;;;;;;;30.40;28.70;;;;;;;;;;4976771;28;20475;-71
2021/08/06 00:28:51;;;;;;;30.10;28.30;;;;;;;;;;4973333;28;20469;-71
2021/08/06 00:31:18;;;;;;;30.03;28.43;;;;;;;;;;4974780;28;20474;-71
2021/08/06 00:33:46;;;;;;;30.90;29.20;;;;;;;;;;4970792;28;20824;-71
2021/08/06 00:36:13;;;;;;;31.63;29.90;;;;;;;;;;4963848;28;20476;-70
2021/08/06 00:38:40;;;;;;;31.90;30.10;;;;;;;;;;4955925;28;20487;-71
2021/08/06 00:41:07;;;;;;;32.53;30.80;;;;;;;;;;4970668;28;20459;-73
2021/08/06 00:43:35;;;;;;;33.10;31.30;;;;;;;;;;4968042;28;20456;-72
2021/08/06 00:46:03;;;;;;;34.43;32.13;;;;;;;;;;4955530;28;20475;-74
2021/08/06 00:48:30;;;;;;;34.80;32.70;;;;;;;;;;4957030;28;20454;-73
2021/08/06 00:50:59;;;;;;;34.67;32.77;;;;;;;;;;4967551;28;20460;-74
2021/08/06 00:53:27;;;;;;;34.57;32.60;;;;;;;;;;4954643;28;20453;-73
2021/08/06 00:55:54;;;;;;;33.27;31.47;;;;;;;;;;4955640;28;20492;-74
2021/08/06 00:58:21;;;;;;;33.90;32.10;;;;;;;;;;4971363;28;20458;-73
2021/08/06 01:00:49;;;;;;;36.30;34.10;;;;;;;;;;4971890;28;20829;-73
2021/08/06 01:03:20;;;;;;;34.70;32.80;;;;;;;;;;4972206;28;20454;-73
2021/08/06 01:05:52;;;;;;;35.37;33.37;;;;;;;;;;4967946;28;20476;-73
2021/08/06 01:08:22;;;;;;;37.93;35.60;;;;;;;;;;4954605;28;20953;-72
2021/08/06 01:10:50;;;;;;;37.13;34.87;;;;;;;;;;4954723;28;20915;-73
2021/08/06 01:13:21;;;;;;;35.20;33.20;;;;;;;;;;4962400;28;20455;-74
2021/08/06 01:15:50;;;;;;;34.77;32.87;;;;;;;;;;4963342;28;20492;-73
2021/08/06 01:18:18;;;;;;;35.37;33.47;;;;;;;;;;4954371;28;20844;-73
2021/08/06 01:20:48;;;;;;;34.90;32.80;;;;;;;;;;4970180;28;20650;-73
2021/08/06 01:23:16;;;;;;;37.40;35.10;;;;;;;;;;4972588;28;20982;-73
2021/08/06 01:25:50;;;;;;;34.60;32.70;;;;;;;;;;4972765;28;20474;-73
2021/08/06 01:28:18;;;;;;;34.87;32.83;;;;;;;;;;4959273;28;20452;-73
2021/08/06 01:30:45;;;;;;;34.90;32.90;;;;;;;;;;4960941;28;20460;-73
2021/08/06 01:33:13;;;;;;;35.83;33.80;;;;;;;;;;4954344;28;20470;-73
2021/08/06 01:35:40;;;;;;;35.80;33.17;;;;;;;;;;4954460;28;20495;-74
2021/08/06 01:38:07;;;;;;;35.10;33.30;;;;;;;;;;4954664;28;20484;-73
2021/08/06 01:40:38;;;;;;;34.57;32.50;;;;;;;;;;4963882;28;20455;-73
2021/08/06 01:43:11;;;;;;;34.77;32.67;;;;;;;;;;4967195;28;20948;-73
2021/08/06 01:45:41;;;;;;;34.43;32.40;;;;;;;;;;4966734;28;20476;-74
2021/08/06 01:48:11;;;;;;;34.10;32.30;;;;;;;;;;4956040;28;20463;-73
2021/08/06 01:50:40;;;;;;;34.80;32.70;;;;;;;;;;4955082;28;20503;-73
2021/08/06 01:53:10;;;;;;;33.77;31.97;;;;;;;;;;4958750;28;20456;-74
2021/08/06 01:55:40;;;;;;;34.50;32.70;;;;;;;;;;4967321;28;20483;-73
2021/08/06 01:58:09;;;;;;;33.83;32.03;;;;;;;;;;4960523;28;20503;-73
2021/08/06 02:00:36;;;;;;;34.40;32.50;;;;;;;;;;4964707;28;20456;-73
2021/08/06 02:03:03;;;;;;;33.47;31.70;;;;;;;;;;4973937;28;20451;-72
2021/08/06 02:05:31;;;;;;;32.20;30.40;;;;;;;;;;4973190;28;20479;-73
2021/08/06 02:07:58;;;;;;;30.70;29.07;;;;;;;;;;4973554;28;20835;-73
2021/08/06 02:10:26;;;;;;;32.37;30.47;;;;;;;;;;4975965;28;20957;-72
2021/08/06 02:12:54;;;;;;;31.80;30.10;;;;;;;;;;4964384;28;20972;-72
2021/08/06 02:15:22;;;;;;;31.30;29.60;;;;;;;;;;4969840;28;20487;-72
2021/08/06 02:17:51;;;;;;;32.50;30.60;;;;;;;;;;4973495;28;20864;-72
2021/08/06 02:20:19;;;;;;;32.63;30.60;;;;;;;;;;4977656;28;20955;-72
2021/08/06 02:22:47;;;;;;;31.80;29.90;;;;;;;;;;4976293;28;20803;-71
2021/08/06 02:25:15;;;;;;;33.90;31.77;;;;;;;;;;4968537;28;20478;-71
2021/08/06 02:27:43;;;;;;;33.60;31.80;;;;;;;;;;4969271;28;20451;-71
2021/08/06 02:30:11;;;;;;;32.90;31.10;;;;;;;;;;4977081;28;20459;-71
2021/08/06 02:32:40;;;;;;;33.80;31.83;;;;;;;;;;4978506;28;20896;-72
2021/08/06 02:35:08;;;;;;;32.90;31.20;;;;;;;;;;4967940;28;20492;-71
2021/08/06 02:37:38;;;;;;;34.20;32.40;;;;;;;;;;4959317;28;20471;-71
2021/08/06 02:40:05;;;;;;;35.50;33.50;;;;;;;;;;4975272;28;20462;-71
2021/08/06 02:42:33;;;;;;;36.20;34.30;;;;;;;;;;4969264;28;20458;-72
2021/08/06 02:45:00;;;;;;;36.43;34.43;;;;;;;;;;4960141;28;20881;-72
2021/08/06 02:47:28;;;;;;;36.60;34.40;;;;;;;;;;4969259;28;20495;-72
2021/08/06 02:49:56;;;;;;;35.37;33.53;;;;;;;;;;4958123;28;20463;-71
2021/08/06 02:52:23;;;;;;;37.07;35.17;;;;;;;;;;4959751;28;20464;-71
2021/08/06 02:54:51;;;;;;;35.63;33.50;;;;;;;;;;4969089;28;20492;-71
2021/08/06 02:57:18;;;;;;;34.33;32.43;;;;;;;;;;4961890;28;20534;-71
2021/08/06 02:59:45;;;;;;;34.73;32.83;;;;;;;;;;4971508;28;20982;-71
2021/08/06 03:02:12;;;;;;;35.00;33.13;;;;;;;;;;4957212;28;20464;-72
2021/08/06 03:04:39;;;;;;;34.70;32.70;;;;;;;;;;4959047;28;20484;-71
2021/08/06 03:07:07;;;;;;;34.00;31.97;;;;;;;;;;4958006;28;20455;-72
2021/08/06 03:09:35;;;;;;;36.60;33.97;;;;;;;;;;4957711;28;20456;-72
2021/08/06 03:12:02;;;;;;;36.53;34.33;;;;;;;;;;4957781;28;20453;-72
2021/08/06 03:14:29;;;;;;;36.43;34.33;;;;;;;;;;4960346;28;20558;-72
2021/08/06 03:16:56;;;;;;;36.23;34.03;;;;;;;;;;4976184;28;20458;-72
2021/08/06 03:19:23;;;;;;;37.20;34.90;;;;;;;;;;4977120;28;20876;-72
2021/08/06 03:21:50;;;;;;;36.07;33.97;;;;;;;;;;4974866;28;20455;-72
2021/08/06 03:24:19;;;;;;;33.77;31.57;;;;;;;;;;4974306;28;20812;-71
2021/08/06 03:26:46;;;;;;;34.20;31.97;;;;;;;;;;4960828;28;20952;-71
2021/08/06 03:29:13;;;;;;;33.93;31.90;;;;;;;;;;4960440;28;20460;-72
2021/08/06 03:31:40;;;;;;;35.47;32.80;;;;;;;;;;4976433;28;20493;-72
2021/08/06 03:34:08;;;;;;;34.47;32.47;;;;;;;;;;4975693;28;20477;-72
2021/08/06 03:36:35;;;;;;;34.87;32.87;;;;;;;;;;4959184;28;20488;-73
2021/08/06 03:39:02;;;;;;;33.30;31.50;;;;;;;;;;4975471;28;20451;-72
2021/08/06 03:41:30;;;;;;;32.50;30.43;;;;;;;;;;4975310;28;20447;-72
2021/08/06 03:43:57;;;;;;;34.00;31.47;;;;;;;;;;4975683;28;20478;-73
2021/08/06 03:46:25;;;;;;;33.27;31.20;;;;;;;;;;4958767;28;20472;-73
2021/08/06 03:48:52;;;;;;;32.53;30.43;;;;;;;;;;4973994;28;20463;-72
2021/08/06 03:51:19;;;;;;;32.40;30.43;;;;;;;;;;4976599;28;20977;-72
2021/08/06 03:53:46;;;;;;;33.40;31.60;;;;;;;;;;4972457;28;20458;-71
2021/08/06 03:56:13;;;;;;;33.00;31.20;;;;;;;;;;4957572;28;21013;-72
2021/08/06 03:58:42;;;;;;;32.93;31.03;;;;;;;;;;4974501;28;20465;-71
2021/08/06 04:01:09;;;;;;;33.07;30.60;;;;;;;;;;4968658;28;20479;-72
2021/08/06 04:03:36;;;;;;;32.70;30.90;;;;;;;;;;4975232;28;20458;-71
2021/08/06 04:06:03;;;;;;;33.13;31.00;;;;;;;;;;4958025;28;20487;-73
2021/08/06 04:08:30;;;;;;;34.90;32.70;;;;;;;;;;4957243;28;20879;-72
2021/08/06 04:10:57;;;;;;;34.80;32.90;;;;;;;;;;4956852;28;20467;-72
2021/08/06 04:13:24;;;;;;;32.97;30.87;;;;;;;;;;4971434;28;20461;-71
2021/08/06 04:15:53;;;;;;;33.43;31.50;;;;;;;;;;4961926;28;20488;-72
2021/08/06 04:18:20;;;;;;;33.53;31.43;;;;;;;;;;4956620;28;20456;-71
2021/08/06 04:20:47;;;;;;;32.80;31.10;;;;;;;;;;4961765;28;20973;-71
2021/08/06 04:23:14;;;;;;;34.20;31.80;;;;;;;;;;4960498;28;20460;-72
2021/08/06 04:25:41;;;;;;;32.90;30.80;;;;;;;;;;4968155;28;20794;-72
2021/08/06 04:28:08;;;;;;;34.27;31.90;;;;;;;;;;4975685;28;20455;-72
2021/08/06 04:30:36;;;;;;;34.50;32.20;;;;;;;;;;4966041;28;20452;-71
2021/08/06 04:33:04;;;;;;;34.40;32.50;;;;;;;;;;4972375;28;20455;-72
2021/08/06 04:35:31;;;;;;;32.13;30.17;;;;;;;;;;4963688;28;20492;-72
2021/08/06 04:37:58;;;;;;;32.43;30.23;;;;;;;;;;4956297;28;20456;-72
2021/08/06 04:40:26;;;;;;;32.23;30.40;;;;;;;;;;4956049;28;20467;-72
2021/08/06 04:42:53;;;;;;;32.30;30.40;;;;;;;;;;4955597;28;20836;-72
2021/08/06 04:45:21;;;;;;;34.00;32.00;;;;;;;;;;4964163;28;20473;-72
2021/08/06 04:47:48;;;;;;;32.60;30.80;;;;;;;;;;4974931;28;20462;-72
2021/08/06 04:50:18;;;;;;;32.50;30.37;;;;;;;;;;4975232;28;20455;-72
2021/08/06 04:52:45;;;;;;;32.27;30.37;;;;;;;;;;4973534;28;20456;-72
2021/08/06 04:55:12;;;;;;;33.67;31.70;;;;;;;;;;4970263;28;20464;-71
2021/08/06 04:57:40;;;;;;;33.97;31.87;;;;;;;;;;4966049;28;20456;-71
2021/08/06 05:00:09;;;;;;;34.47;32.13;;;;;;;;;;4955157;28;20463;-71
2021/08/06 05:02:36;;;;;;;41.63;37.90;;;;;;;;;;4959627;28;20449;-71
2021/08/06 05:05:03;;;;;;;39.80;36.97;;;;;;;;;;4968597;28;20483;-71
2021/08/06 05:07:32;;;;;;;40.00;36.87;;;;;;;;;;4956267;28;20499;-71
2021/08/06 05:09:59;;;;;;;37.77;35.20;;;;;;;;;;4955427;28;20463;-71
2021/08/06 05:12:26;;;;;;;56.30;53.13;;;;;;;;;;4956366;28;20452;-71
2021/08/06 05:14:53;;;;;;;39.77;37.37;;;;;;;;;;4959684;28;20475;-72
2021/08/06 05:17:20;;;;;;;39.23;36.70;;;;;;;;;;4972647;28;20487;-71
2021/08/06 05:19:47;;;;;;;39.07;36.73;;;;;;;;;;4974660;28;20452;-71
2021/08/06 05:22:14;;;;;;;40.37;37.80;;;;;;;;;;4958719;28;20467;-71
2021/08/06 05:24:43;;;;;;;40.30;37.90;;;;;;;;;;4957035;28;20478;-71
2021/08/06 05:27:10;;;;;;;40.60;37.90;;;;;;;;;;4956833;28;20463;-71
2021/08/06 05:29:37;;;;;;;40.20;37.90;;;;;;;;;;4973219;28;20477;-72
2021/08/06 05:32:04;;;;;;;39.47;36.90;;;;;;;;;;4968377;28;20450;-72
2021/08/06 05:34:31;;;;;;;40.63;38.33;;;;;;;;;;4955077;28;20480;-72
2021/08/06 05:36:59;;;;;;;39.50;37.10;;;;;;;;;;4955287;28;20863;-72
2021/08/06 05:39:26;;;;;;;39.40;37.10;;;;;;;;;;4955398;28;20456;-72
2021/08/06 05:41:54;;;;;;;40.40;37.77;;;;;;;;;;4969791;28;20455;-72
2021/08/06 05:44:21;;;;;;;39.47;37.20;;;;;;;;;;4974327;28;20470;-72
2021/08/06 05:46:48;;;;;;;39.83;37.03;;;;;;;;;;4973890;28;20451;-72
2021/08/06 05:49:15;;;;;;;42.20;39.50;;;;;;;;;;4977127;28;20462;-71
2021/08/06 05:51:42;;;;;;;44.70;42.00;;;;;;;;;;4966031;28;20460;-72
2021/08/06 05:54:10;;;;;;;43.77;41.20;;;;;;;;;;4959508;28;20456;-72
2021/08/06 05:56:37;;;;;;;44.20;41.80;;;;;;;;;;4969364;28;21002;-72
2021/08/06 05:59:05;;;;;;;45.00;42.53;;;;;;;;;;4977295;28;20455;-71
2021/08/06 06:01:32;;;;;;;47.10;44.50;;;;;;;;;;4971122;28;20459;-71
2021/08/06 06:03:59;;;;;;;46.50;43.70;;;;;;;;;;4973777;28;20456;-72
2021/08/06 06:06:27;;;;;;;44.67;42.13;;;;;;;;;;4974072;28;20566;-71
2021/08/06 06:08:54;;;;;;;44.53;41.83;;;;;;;;;;4969771;28;20451;-67
2021/08/06 06:11:21;;;;;;;44.10;41.47;;;;;;;;;;4966808;28;20478;-70
2021/08/06 06:13:48;;;;;;;48.53;45.47;;;;;;;;;;4959218;28;20452;-70
2021/08/06 06:16:16;;;;;;;49.53;46.50;;;;;;;;;;4971004;28;20491;-68
2021/08/06 06:18:43;;;;;;;45.73;43.03;;;;;;;;;;4970757;28;20467;-68
2021/08/06 06:21:11;;;;;;;45.00;42.50;;;;;;;;;;4965957;28;21165;-69
2021/08/06 06:23:38;;;;;;;42.30;39.87;;;;;;;;;;4958477;28;20460;-69
2021/08/06 06:26:06;;;;;;;43.13;40.73;;;;;;;;;;4959819;28;20472;-68
2021/08/06 06:28:33;;;;;;;41.83;39.43;;;;;;;;;;4958550;28;20944;-68
2021/08/06 06:31:00;;;;;;;42.77;40.40;;;;;;;;;;4957195;28;20830;-72
2021/08/06 06:33:29;;;;;;;42.37;39.00;;;;;;;;;;4958774;28;20448;-70
2021/08/06 06:35:56;;;;;;;41.70;39.27;;;;;;;;;;4960157;28;20488;-70
2021/08/06 06:38:23;;;;;;;40.50;38.10;;;;;;;;;;4975094;28;20455;-69
2021/08/06 06:40:51;;;;;;;39.10;36.77;;;;;;;;;;4971913;28;20825;-72
2021/08/06 06:43:18;;;;;;;37.23;35.03;;;;;;;;;;4958795;28;20817;-69
2021/08/06 06:45:45;;;;;;;35.30;33.40;;;;;;;;;;4957628;28;20479;-70
2021/08/06 06:48:12;;;;;;;37.07;35.03;;;;;;;;;;4957485;28;20546;-71
2021/08/06 06:50:41;;;;;;;37.63;35.63;;;;;;;;;;4970703;28;20452;-70
2021/08/06 06:53:08;;;;;;;36.67;34.73;;;;;;;;;;4958119;28;20455;-71
2021/08/06 06:55:35;;;;;;;40.33;38.13;;;;;;;;;;4964729;28;21112;-72
2021/08/06 06:58:02;;;;;;;38.30;36.10;;;;;;;;;;4965286;28;20483;-70
2021/08/06 07:00:31;;;;;;;40.70;38.43;;;;;;;;;;4958841;28;20456;-71
2021/08/06 07:02:59;;;;;;;39.97;37.87;;;;;;;;;;4957554;28;20456;-70
2021/08/06 07:05:26;;;;;;;38.27;36.17;;;;;;;;;;4963927;28;20493;-70
2021/08/06 07:07:54;;;;;;;38.23;36.13;;;;;;;;;;4976698;28;20810;-70
2021/08/06 07:10:22;;;;;;;40.77;38.67;;;;;;;;;;4973337;28;20461;-73
2021/08/06 07:12:50;;;;;;;37.50;35.50;;;;;;;;;;4963863;28;20459;-70
2021/08/06 07:15:18;;;;;;;36.90;35.00;;;;;;;;;;4976493;28;20482;-70
2021/08/06 07:17:45;;;;;;;39.10;37.00;;;;;;;;;;4975006;28;20493;-70
2021/08/06 07:20:13;;;;;;;37.17;35.17;;;;;;;;;;4963216;28;20905;-74
2021/08/06 07:22:40;;;;;;;38.60;35.97;;;;;;;;;;4966790;28;20469;-70
2021/08/06 07:25:10;;;;;;;36.10;34.03;;;;;;;;;;4964368;28;20476;-69
2021/08/06 07:27:37;;;;;;;38.43;36.33;;;;;;;;;;4969083;28;20447;-70
2021/08/06 07:30:05;;;;;;;38.23;36.23;;;;;;;;;;4958825;28;20837;-70
2021/08/06 07:32:32;;;;;;;36.77;34.70;;;;;;;;;;4962280;28;20804;-72
2021/08/06 07:34:59;;;;;;;34.27;32.37;;;;;;;;;;4959721;28;20508;-70
2021/08/06 07:37:26;;;;;;;33.60;31.70;;;;;;;;;;4960256;28;20491;-70
2021/08/06 07:39:54;;;;;;;35.00;33.03;;;;;;;;;;4966716;28;20465;-69
2021/08/06 07:42:22;;;;;;;33.10;31.30;;;;;;;;;;4961154;28;20448;-70
2021/08/06 07:44:50;;;;;;;34.70;32.70;;;;;;;;;;4956865;28;20472;-70
2021/08/06 07:47:17;;;;;;;32.33;30.47;;;;;;;;;;4958078;28;20448;-69
2021/08/06 07:49:44;;;;;;;35.00;33.20;;;;;;;;;;4963757;28;20936;-72
2021/08/06 07:52:12;;;;;;;34.23;32.30;;;;;;;;;;4957465;28;20466;-69
2021/08/06 07:54:40;;;;;;;33.60;31.70;;;;;;;;;;4957182;28;20478;-70
2021/08/06 07:57:07;;;;;;;34.67;32.77;;;;;;;;;;4973534;28;20483;-70
2021/08/06 07:59:37;;;;;;;32.10;30.40;;;;;;;;;;4963910;28;20462;-70
2021/08/06 08:02:04;;;;;;;33.10;31.30;;;;;;;;;;4973268;28;20475;-70
2021/08/06 08:04:31;;;;;;;33.70;31.90;;;;;;;;;;4978043;28;20471;-70
2021/08/06 08:06:58;;;;;;;32.17;30.37;;;;;;;;;;5013283;22;20889;-65
2021/08/06 08:09:25;;;;;;;33.17;31.37;;;;;;;;;;5025728;28;20452;-66
2021/08/06 08:11:52;;;;;;;33.67;31.87;;;;;;;;;;5001693;28;20497;-66
2021/08/06 08:14:20;;;;;;;31.90;30.13;;;;;;;;;;4993483;28;20457;-66
2021/08/06 08:16:49;;;;;;;31.97;30.27;;;;;;;;;;4993144;28;20490;-66
2021/08/06 08:19:16;;;;;;;34.10;32.20;;;;;;;;;;5009812;28;20511;-66
2021/08/06 08:21:43;;;;;;;34.57;32.57;;;;;;;;;;5003569;28;20466;-66
2021/08/06 08:24:11;;;;;;;32.10;30.40;;;;;;;;;;5009800;28;20462;-66
2021/08/06 08:26:38;;;;;;;31.17;29.33;;;;;;;;;;5013827;28;20493;-66
2021/08/06 08:29:05;;;;;;;33.13;31.33;;;;;;;;;;5004289;28;20462;-65
2021/08/06 08:31:33;;;;;;;34.20;32.43;;;;;;;;;;4996877;28;20450;-66
2021/08/06 08:34:01;;;;;;;32.30;30.60;;;;;;;;;;5001177;28;20446;-65
2021/08/06 08:36:28;;;;;;;31.93;30.23;;;;;;;;;;4993500;28;20848;-66
2021/08/06 08:38:56;;;;;;;30.70;29.00;;;;;;;;;;5000504;28;20442;-66
2021/08/06 08:41:23;;;;;;;30.57;28.93;;;;;;;;;;4996514;28;20454;-65
2021/08/06 08:43:50;;;;;;;32.07;30.47;;;;;;;;;;4995818;28;20450;-65
2021/08/06 08:46:19;;;;;;;31.13;29.43;;;;;;;;;;4993142;28;20474;-66
2021/08/06 08:48:46;;;;;;;30.77;29.07;;;;;;;;;;4994630;28;20509;-64
2021/08/06 08:51:15;;;;;;;31.33;29.73;;;;;;;;;;4993704;28;20459;-65
2021/08/06 08:53:42;;;;;;;31.40;29.70;;;;;;;;;;4996762;28;20456;-65
2021/08/06 08:56:10;;;;;;;30.90;29.30;;;;;;;;;;5012426;28;20469;-65
2021/08/06 08:58:38;;;;;;;29.90;28.30;;;;;;;;;;5005828;28;20486;-66
2021/08/06 09:01:06;;;;;;;27.80;26.30;;;;;;;;;;4994618;28;20961;-67
2021/08/06 09:03:36;;;;;;;26.90;25.13;;;;;;;;;;4994349;28;20466;-65
2021/08/06 09:06:03;;;;;;;27.60;25.90;;;;;;;;;;5004621;28;20474;-66
2021/08/06 09:08:31;;;;;;;27.27;25.50;;;;;;;;;;5002213;28;20834;-66
2021/08/06 09:10:58;;;;;;;29.17;27.43;;;;;;;;;;5005044;28;20912;-64
2021/08/06 09:13:26;;;;;;;29.30;27.60;;;;;;;;;;5003984;28;20453;-65
2021/08/06 09:15:55;;;;;;;28.97;27.00;;;;;;;;;;4992772;28;20484;-66
2021/08/06 09:18:32;;;;;;;28.90;27.30;;;;;;;;;;5007222;28;20490;-66
2021/08/06 09:21:00;;;;;;;27.13;25.50;;;;;;;;;;5005487;28;20443;-66
2021/08/06 09:23:39;;;;;;;32.47;30.67;;;;;;;;;;5000233;28;20818;-66
2021/08/06 09:26:07;;;;;;;31.87;30.00;;;;;;;;;;5005269;28;20465;-66
2021/08/06 09:28:34;;;;;;;30.13;28.30;;;;;;;;;;5000000;28;20455;-66
2021/08/06 09:31:15;;;;;;;30.37;28.67;;;;;;;;;;4993701;28;20954;-65
2021/08/06 09:33:42;;;;;;;29.87;28.27;;;;;;;;;;4996624;28;20458;-66
2021/08/06 09:36:13;;;;;;;31.10;29.30;;;;;;;;;;5004732;28;20476;-65
2021/08/06 09:38:41;;;;;;;30.40;28.70;;;;;;;;;;4992634;28;20830;-65
2021/08/06 09:41:09;;;;;;;29.20;27.60;;;;;;;;;;4992059;28;20960;-66
2021/08/06 09:43:36;;;;;;;27.70;26.17;;;;;;;;;;5008655;28;20949;-65
2021/08/06 09:46:03;;;;;;;27.03;25.40;;;;;;;;;;5009376;28;20481;-65
2021/08/06 09:48:30;;;;;;;28.73;27.23;;;;;;;;;;5005748;28;20446;-66
2021/08/06 09:50:57;;;;;;;29.00;27.40;;;;;;;;;;4993321;28;20453;-66
2021/08/06 09:53:26;;;;;;;27.03;25.53;;;;;;;;;;5003535;28;20457;-65
2021/08/06 09:55:54;;;;;;;29.10;27.50;;;;;;;;;;4992146;28;20842;-66
2021/08/06 09:58:24;;;;;;;29.03;27.33;;;;;;;;;;4996285;28;20492;-65
2021/08/06 10:00:52;;;;;;;29.20;27.50;;;;;;;;;;5000139;28;20454;-66
2021/08/06 10:03:26;;;;;;;29.07;27.57;;;;;;;;;;5003625;28;20457;-65
2021/08/06 10:06:07;;;;;;;28.53;26.90;;;;;;;;;;5008066;28;20568;-65
2021/08/06 10:08:35;;;;;;;26.97;25.57;;;;;;;;;;4993304;28;20439;-65
2021/08/06 10:11:03;;;;;;;28.23;26.73;;;;;;;;;;4991809;28;20450;-65
2021/08/06 10:13:30;;;;;;;26.67;25.27;;;;;;;;;;5000392;28;20456;-66
2021/08/06 10:15:58;;;;;;;27.30;25.80;;;;;;;;;;5011684;28;20781;-66
2021/08/06 10:18:25;;;;;;;27.13;25.73;;;;;;;;;;4998510;28;20492;-66
2021/08/06 10:20:52;;;;;;;26.80;25.30;;;;;;;;;;5011348;28;20871;-65
2021/08/06 10:23:20;;;;;;;27.80;26.40;;;;;;;;;;5006533;28;20462;-66
2021/08/06 10:25:47;;;;;;;27.80;26.30;;;;;;;;;;4991725;28;20470;-65
2021/08/06 10:28:16;;;;;;;27.33;25.93;;;;;;;;;;4996224;28;20463;-65
2021/08/06 10:30:43;;;;;;;28.07;26.67;;;;;;;;;;4995901;28;20486;-66
2021/08/06 10:33:19;;;;;;;27.83;26.33;;;;;;;;;;4991978;28;20460;-66
2021/08/06 10:35:47;;;;;;;27.70;26.30;;;;;;;;;;5001583;28;20495;-65
2021/08/06 10:38:15;;;;;;;28.10;26.70;;;;;;;;;;5014940;28;20482;-66
2021/08/06 10:41:03;;;;;;;27.63;26.23;;;;;;;;;;5013087;28;20461;-66
2021/08/06 10:43:52;;;;;;;27.20;25.80;;;;;;;;;;4996535;28;20437;-65
2021/08/06 10:46:20;;;;;;;28.97;27.27;;;;;;;;;;5011718;28;20503;-66
2021/08/06 10:48:48;;;;;;;28.80;27.30;;;;;;;;;;5003442;28;20451;-65
2021/08/06 10:51:20;;;;;;;29.00;27.40;;;;;;;;;;5012194;28;20484;-65
2021/08/06 10:53:48;;;;;;;23.67;22.47;;;;;;;;;;5013503;28;20466;-65
2021/08/06 10:56:25;;;;;;;23.47;22.17;;;;;;;;;;5013653;28;20500;-65
2021/08/06 10:58:54;;;;;;;23.63;22.43;;;;;;;;;;5006014;28;20500;-66
2021/08/06 11:01:37;;;;;;;23.40;22.20;;;;;;;;;;5010127;28;20813;-65
2021/08/06 11:04:06;;;;;;;23.23;21.73;;;;;;;;;;5013940;28;20445;-65
2021/08/06 11:06:33;;;;;;;24.03;22.73;;;;;;;;;;5014011;28;20856;-66
2021/08/06 11:09:00;;;;;;;23.43;22.13;;;;;;;;;;5010166;28;20564;-65
2021/08/06 11:11:46;;;;;;;27.67;26.10;;;;;;;;;;5014239;28;20445;-63
2021/08/06 11:14:16;;;;;;;27.90;26.50;;;;;;;;;;4998725;28;20454;-64
2021/08/06 11:16:59;;;;;;;27.10;25.60;;;;;;;;;;5006340;28;21012;-66
2021/08/06 11:19:27;;;;;;;27.77;26.27;;;;;;;;;;4995548;28;20504;-65
2021/08/06 11:21:54;;;;;;;30.00;28.40;;;;;;;;;;5009062;28;20458;-65
2021/08/06 11:24:21;;;;;;;28.07;26.57;;;;;;;;;;5002559;28;20455;-66
2021/08/06 11:26:48;;;;;;;28.50;27.10;;;;;;;;;;5003464;28;20481;-65
2021/08/06 11:29:17;;;;;;;27.43;26.03;;;;;;;;;;5010570;28;21077;-66
2021/08/06 11:31:44;;;;;;;26.17;24.83;;;;;;;;;;5012143;28;20805;-66
2021/08/06 11:34:11;;;;;;;27.80;26.40;;;;;;;;;;5022310;28;20453;-66
2021/08/06 11:36:38;;;;;;;27.60;26.10;;;;;;;;;;5017747;28;20469;-66
2021/08/06 11:39:13;;;;;;;28.10;26.60;;;;;;;;;;4997093;28;20486;-66
2021/08/06 11:41:46;;;;;;;28.10;26.23;;;;;;;;;;5002949;28;20978;-65
2021/08/06 11:44:13;;;;;;;27.93;26.43;;;;;;;;;;4994022;28;20541;-66
2021/08/06 11:46:46;;;;;;;28.53;26.93;;;;;;;;;;5008571;28;20473;-65
2021/08/06 11:49:14;;;;;;;27.20;25.70;;;;;;;;;;4994922;28;20446;-66
2021/08/06 11:51:51;;;;;;;29.30;27.70;;;;;;;;;;4994091;28;21000;-66
2021/08/06 11:54:19;;;;;;;28.53;27.03;;;;;;;;;;5003970;28;20461;-65
2021/08/06 11:56:46;;;;;;;30.40;28.80;;;;;;;;;;4999601;28;20481;-66
2021/08/06 11:59:14;;;;;;;27.87;26.37;;;;;;;;;;5005783;28;20544;-66
2021/08/06 12:01:41;;;;;;;28.00;26.40;;;;;;;;;;5004018;28;20536;-65
2021/08/06 12:04:09;;;;;;;29.10;27.50;;;;;;;;;;5012214;28;20463;-66
2021/08/06 12:06:44;;;;;;;28.03;26.43;;;;;;;;;;5007480;28;20496;-66
2021/08/06 12:09:11;;;;;;;27.53;26.03;;;;;;;;;;5010954;28;20450;-66
2021/08/06 12:11:44;;;;;;;27.30;25.83;;;;;;;;;;5004203;28;20941;-66
2021/08/06 12:14:12;;;;;;;28.80;27.20;;;;;;;;;;5012738;28;20496;-66
2021/08/06 12:16:40;;;;;;;28.67;27.17;;;;;;;;;;5009239;28;20483;-65
2021/08/06 12:19:08;;;;;;;29.80;28.20;;;;;;;;;;4999923;28;20517;-65
2021/08/06 12:21:37;;;;;;;29.50;27.93;;;;;;;;;;5002798;28;20832;-65
2021/08/06 12:24:08;;;;;;;28.70;27.20;;;;;;;;;;5011453;28;20447;-65
2021/08/06 12:26:43;;;;;;;29.20;27.60;;;;;;;;;;5004972;28;20486;-64
2021/08/06 12:29:11;;;;;;;29.30;27.60;;;;;;;;;;5000296;28;20838;-66
2021/08/06 12:31:48;;;;;;;27.40;25.90;;;;;;;;;;5002154;28;20449;-66
2021/08/06 12:34:15;;;;;;;28.80;27.20;;;;;;;;;;4994427;28;20451;-65
2021/08/06 12:36:53;;;;;;;29.17;27.67;;;;;;;;;;4998384;28;20476;-66
2021/08/06 12:39:20;;;;;;;28.87;27.37;;;;;;;;;;5000643;28;20486;-66
2021/08/06 12:41:49;;;;;;;30.20;28.50;;;;;;;;;;5000537;28;20469;-67
2021/08/06 12:44:17;;;;;;;30.50;28.80;;;;;;;;;;4994416;28;20447;-65
2021/08/06 12:46:55;;;;;;;29.10;27.50;;;;;;;;;;4998068;28;20993;-66
2021/08/06 12:49:25;;;;;;;27.63;26.13;;;;;;;;;;4993099;28;20442;-66
2021/08/06 12:51:59;;;;;;;29.87;28.10;;;;;;;;;;5001670;28;20458;-66
2021/08/06 12:54:46;;;;;;;29.67;28.07;;;;;;;;;;5012343;28;20449;-64
2021/08/06 12:57:13;;;;;;;28.57;27.00;;;;;;;;;;4991993;28;20470;-66
2021/08/06 12:59:43;;;;;;;29.20;27.60;;;;;;;;;;4992955;28;20482;-65
2021/08/06 13:02:17;;;;;;;30.17;28.47;;;;;;;;;;5002132;28;20482;-64
2021/08/06 13:04:44;;;;;;;29.73;28.17;;;;;;;;;;5005763;28;20957;-65
2021/08/06 13:07:25;;;;;;;27.33;25.83;;;;;;;;;;5005961;28;20484;-66
2021/08/06 13:09:52;;;;;;;28.93;27.33;;;;;;;;;;4998366;28;20442;-66
2021/08/06 13:12:19;;;;;;;26.27;24.87;;;;;;;;;;5011967;28;20452;-66
2021/08/06 13:14:47;;;;;;;29.10;27.60;;;;;;;;;;5011179;28;20460;-65
2021/08/06 13:17:17;;;;;;;28.17;26.67;;;;;;;;;;5000574;28;20509;-65
2021/08/06 13:19:44;;;;;;;29.73;28.13;;;;;;;;;;4993767;28;20490;-66
2021/08/06 13:22:13;;;;;;;30.43;28.93;;;;;;;;;;5011756;28;20458;-65
2021/08/06 13:24:42;;;;;;;27.83;26.33;;;;;;;;;;4999839;28;20476;-66
2021/08/06 13:27:09;;;;;;;29.43;27.93;;;;;;;;;;4999874;28;20469;-66
2021/08/06 13:29:36;;;;;;;29.50;28.00;;;;;;;;;;4997064;28;20461;-65
2021/08/06 13:32:04;;;;;;;30.13;28.53;;;;;;;;;;4995472;28;20456;-65
2021/08/06 13:34:32;;;;;;;27.70;26.30;;;;;;;;;;4998548;28;20491;-66
2021/08/06 13:36:59;;;;;;;30.10;28.50;;;;;;;;;;4996614;28;20474;-65
2021/08/06 13:39:26;;;;;;;29.73;28.13;;;;;;;;;;5001067;28;20486;-66
2021/08/06 13:41:55;;;;;;;27.20;25.70;;;;;;;;;;5011435;28;20469;-66
2021/08/06 13:44:22;;;;;;;28.50;27.00;;;;;;;;;;5001241;28;20454;-65
2021/08/06 13:46:49;;;;;;;28.10;26.50;;;;;;;;;;5002944;28;20485;-64
2021/08/06 13:49:16;;;;;;;29.23;27.53;;;;;;;;;;5004244;28;20461;-66
2021/08/06 13:51:43;;;;;;;28.63;27.13;;;;;;;;;;4997767;28;20451;-65
2021/08/06 13:54:10;;;;;;;30.73;29.03;;;;;;;;;;5003767;28;20453;-66
2021/08/06 13:56:38;;;;;;;30.00;28.37;;;;;;;;;;5011104;28;20867;-70
2021/08/06 13:59:06;;;;;;;116.90;109.93;;;;;;;;;;4998167;28;20477;-66
2021/08/06 14:01:34;;;;;;;134.07;126.27;;;;;;;;;;4998226;28;20524;-64
2021/08/06 14:04:01;;;;;;;137.57;129.57;;;;;;;;;;4991933;28;20461;-68
2021/08/06 14:06:28;;;;;;;151.27;142.77;;;;;;;;;;5003390;28;20493;-67
2021/08/06 14:08:55;;;;;;;179.63;169.43;;;;;;;;;;5021455;22;21020;-67
2021/08/06 14:11:22;;;;;;;155.53;145.73;;;;;;;;;;5036983;28;20958;-66
2021/08/06 14:13:49;;;;;;;137.30;127.80;;;;;;;;;;5031072;28;20450;-66
2021/08/06 14:16:18;;;;;;;121.10;113.03;;;;;;;;;;5016130;28;20456;-66
2021/08/06 14:18:45;;;;;;;117.93;109.60;;;;;;;;;;5016328;28;20493;-67
2021/08/06 14:21:13;;;;;;;120.97;113.30;;;;;;;;;;5015617;28;20532;-67
2021/08/06 14:23:40;;;;;;;123.90;116.10;;;;;;;;;;5016739;28;20507;-68